Flight Track Log - Related Links

Times and Time Zones

All times are in EDT time to prevent confusion due to time zone crossing. See the KAL694 flight status page for this flight to view local times or setup timezone preferences in your user account.

Time Position Orientation Groundspeed Altitude Reporting Facility
EDT Latitude Longitude Course Direction KTS MPH feet Rate Location/Type
07:57AM 26.4658 121.7513 19° North  Level Estimated
07:58AM 26.5568 121.7857 19° North  Level Estimated
07:59AM 26.6477 121.8202 19° North  Level Estimated
08:00AM 26.7387 121.8547 19° North  Level Estimated
08:01AM 26.8296 121.8893 19° North  Level Estimated
08:02AM 26.9205 121.9240 19° North  Level Estimated
08:03AM 27.0114 121.9587 19° North  Level Estimated
08:04AM 27.1024 121.9934 19° North  Level Estimated
08:05AM 27.1933 122.0283 19° North  Level Estimated
08:06AM 27.2841 122.0631 19° North  Level Estimated
08:07AM 27.3750 122.0981 19° North  Level Estimated
08:08AM 27.4659 122.1330 19° North  Level Estimated
08:09AM 27.5567 122.1681 19° North  Level Estimated
08:10AM 27.6476 122.2032 19° North  Level Estimated
08:11AM 27.7433 122.2403 19° North  Level Estimated
08:12AM 27.8391 122.2774 19° North  Level Estimated
08:13AM 27.9348 122.3146 19° North  Level Estimated
08:14AM 28.0305 122.3518 19° North  Level Estimated
08:15AM 28.1262 122.3891 19° North  Level Estimated
08:16AM 28.2219 122.4265 19° North  Level Estimated
08:17AM 28.3176 122.4640 19° North  Level Estimated
08:18AM 28.4132 122.5015 19° North  Level Estimated
08:19AM 28.5089 122.5391 19° North  Level Estimated
08:20AM 28.6045 122.5768 19° North  Level Estimated
08:21AM 28.7002 122.6145 19° North  Level Estimated
08:22AM 28.7958 122.6523 19° North  Level Estimated
08:23AM 28.8914 122.6901 19° North  Level Estimated
08:24AM 28.9870 122.7281 19° North  Level Estimated
08:25AM 29.0826 122.7661 19° North  Level Estimated
08:26AM 29.1782 122.8042 19° North  Level Estimated
08:27AM 29.2738 122.8423 19° North  Level Estimated
08:28AM 29.3693 122.8805 19° North  Level Estimated
08:29AM 29.4649 122.9188 19° North  Level Estimated
08:30AM 29.5604 122.9572 19° North  Level Estimated
08:31AM 29.6559 122.9956 19° North  Level Estimated
08:32AM 29.7514 123.0341 19° North  Level Estimated
08:33AM 29.8470 123.0727 19° North  Level Estimated
08:34AM 29.9424 123.1114 19° North  Level Estimated
08:35AM 30.0379 123.1501 19° North  Level Estimated
08:36AM 30.1334 123.1889 19° North  Level Estimated
08:37AM 30.2288 123.2278 19° North  Level Estimated
08:38AM 30.3243 123.2667 19° North  Level Estimated
08:39AM 30.4197 123.3058 19° North  Level Estimated
08:40AM 30.5152 123.3449 19° North  Level Estimated
08:41AM 30.6106 123.3841 19° North  Level Estimated
08:42AM 30.7060 123.4233 20° North  Level Estimated
08:43AM 30.8014 123.4627 20° North  Level Estimated
08:44AM 30.8967 123.5021 20° North  Level Estimated
08:45AM 30.9921 123.5416 20° North  Level Estimated
08:46AM 31.0875 123.5812 20° North  Level Estimated
08:47AM 31.1828 123.6208 20° North  Level Estimated
08:48AM 31.2781 123.6606 20° North  Level Estimated
08:49AM 31.3735 123.7004 20° North  Level Estimated
08:50AM 31.4688 123.7403 20° North  Level Estimated
08:51AM 31.5641 123.7803 20° North  Level Estimated
08:52AM 31.6593 123.8203 20° North  Level Estimated
08:53AM 31.7546 123.8605 20° North  Level Estimated
08:54AM 31.8499 123.9007 20° North  Level Estimated
08:55AM 31.9451 123.9410 20° North  Level Estimated
08:56AM 32.0403 123.9814 20° North  Level Estimated
08:57AM 32.1356 124.0218 20° North  Level Estimated
08:58AM 32.2308 124.0624 20° North  Level Estimated
08:59AM 32.3260 124.1031 20° North  Level Estimated
09:00AM 32.4211 124.1438 20° North  Level Estimated
09:01AM 32.5163 124.1846 20° North  Level Estimated
09:02AM 32.6115 124.2255 20° North  Level Estimated
09:03AM 32.7066 124.2665 20° North  Level Estimated
09:04AM 32.8017 124.3076 20° North  Level Estimated
09:05AM 32.8968 124.3487 20° North  Level Estimated
09:06AM 32.9919 124.3900 20° North  Level Estimated
09:07AM 33.0870 124.4313 20° North  Level Estimated
09:08AM 33.1821 124.4728 20° North  Level Estimated
09:09AM 33.2771 124.5143 20° North  Level Estimated
09:10AM 33.3722 124.5559 20° North  Level Estimated
09:11AM 33.4679 124.5979 20° North  Level Estimated
09:12AM 33.5637 124.6401 20° North  Level Estimated
09:13AM 33.6594 124.6823 20° North  Level Estimated
09:14AM 33.7552 124.7246 20° North  Level Estimated
09:15AM 33.8509 124.7670 20° North  Level Estimated
09:16AM 33.9466 124.8095 20° North  Level Estimated
09:17AM 34.0422 124.8521 20° North  Level Estimated
09:18AM 34.1379 124.8948 20° North  Level Estimated
09:19AM 34.2336 124.9375 20° North  Level Estimated
09:20AM 34.3292 124.9804 20° North  Level Estimated
09:21AM 34.4248 125.0234 20° North  Level Estimated
09:22AM 34.5204 125.0665 20° North  Level Estimated
09:23AM 34.6160 125.1097 20° North  Level Estimated
09:24AM 34.7116 125.1529 20° North  Level Estimated
09:25AM 34.8071 125.1963 20° North  Level Estimated
09:26AM 34.9027 125.2398 20° North  Level Estimated
09:27AM 34.9982 125.2834 21° North  Level Estimated
09:28AM 35.0937 125.3271 21° North  Level Estimated
09:29AM 35.1892 125.3708 21° North  Level Estimated
09:30AM 35.2847 125.4147 21° North  Level Estimated
09:31AM 35.3802 125.4587 21° North  Level Estimated
09:32AM 35.4756 125.5028 21° North  Level Estimated
09:33AM 35.5710 125.5470 21° North  Level Estimated
09:34AM 35.6665 125.5913 21° North  Level Estimated
09:35AM 35.7619 125.6357 21° North  Level Estimated
09:36AM 35.8572 125.6803 21° North  Level Estimated
09:37AM 35.9526 125.7249 21° North  Level Estimated
09:38AM 36.0480 125.7696 21° North  Level Estimated
09:39AM 36.1433 125.8145 21° North  Level Estimated
09:40AM 36.2386 125.8594 21° North  Level Estimated
09:41AM 36.3339 125.9045 21° North  Level Estimated
09:42AM 36.4292 125.9496 21° North  Level Estimated
09:43AM 36.5245 125.9949 21° North  Level Estimated
09:44AM 36.6197 126.0403 21° North  Level Estimated
09:45AM 36.7150 126.0858 21° North  Level Estimated
09:46AM 36.8102 126.1314 21° North  Level Estimated
09:47AM 36.9054 126.1772 21° North  Level Estimated
09:48AM 37.0005 126.2230 21° North  Level Estimated
09:49AM 37.0957 126.2690 21° North  Level Estimated
09:50AM 37.1909 126.3151 21° North  Level Estimated
09:51AM 37.2860 126.3613 21° North  Level Estimated
09:52AM 37.3811 126.4076 21° North  Level Estimated
09:53AM 37.4762 126.4540 201° Southwest  Level Estimated
09:54AM 37.3811 126.4075 21° North  Level Estimated
09:55AM 37.4762 126.4540 201° Southwest  Level Estimated
09:56AM 37.3811 126.4075 21° North  Level Estimated
09:57AM 37.4762 126.4540 201° Southwest  Level Estimated
09:58AM 37.3811 126.4075 21° North  Level Estimated
09:59AM 37.4762 126.4540 201° Southwest  Level Estimated
10:00AM 37.3811 126.4075 21° North  Level Estimated
10:01AM 37.4762 126.4540 201° Southwest  Level Estimated
10:02AM 37.3811 126.4075 21° North  Level Estimated
10:03AM 37.4762 126.4540 201° Southwest  Level Estimated
10:04AM 37.3811 126.4075 21° North  Level Estimated
10:05AM 37.4762 126.4540 201° Southwest  Level Estimated
10:06AM 37.3811 126.4075 201° Southwest  Level Estimated

Login

Don't have an account? Register now (free) for customized features, flight alerts, and more!